sensor_id;sensor_type;location;lat;lon;timestamp;temperature;humidity
75155;HTU21D;63735;44.730;37.818;2023-06-19T00:01:52;22.62;67.72
75155;HTU21D;63735;44.730;37.818;2023-06-19T00:04:18;22.63;67.91
75155;HTU21D;63735;44.730;37.818;2023-06-19T00:06:44;22.64;68.02
75155;HTU21D;63735;44.730;37.818;2023-06-19T00:09:09;22.62;68.30
75155;HTU21D;63735;44.730;37.818;2023-06-19T00:11:35;22.58;68.41
75155;HTU21D;63735;44.730;37.818;2023-06-19T00:14:01;22.58;68.55
75155;HTU21D;63735;44.730;37.818;2023-06-19T00:16:27;22.56;68.82
75155;HTU21D;63735;44.730;37.818;2023-06-19T00:18:53;22.54;68.92
75155;HTU21D;63735;44.730;37.818;2023-06-19T00:21:25;22.55;69.01
75155;HTU21D;63735;44.730;37.818;2023-06-19T00:23:51;22.56;69.00
75155;HTU21D;63735;44.730;37.818;2023-06-19T00:26:18;22.56;69.04
75155;HTU21D;63735;44.730;37.818;2023-06-19T00:28:49;22.54;69.29
75155;HTU21D;63735;44.730;37.818;2023-06-19T00:31:15;22.52;69.45
75155;HTU21D;63735;44.730;37.818;2023-06-19T00:33:43;22.47;69.65
75155;HTU21D;63735;44.730;37.818;2023-06-19T00:36:13;22.41;69.76
75155;HTU21D;63735;44.730;37.818;2023-06-19T00:38:39;22.39;69.82
75155;HTU21D;63735;44.730;37.818;2023-06-19T00:41:06;22.34;69.97
75155;HTU21D;63735;44.730;37.818;2023-06-19T00:43:32;22.33;70.16
75155;HTU21D;63735;44.730;37.818;2023-06-19T00:45:59;22.27;70.24
75155;HTU21D;63735;44.730;37.818;2023-06-19T00:48:27;22.27;70.37
75155;HTU21D;63735;44.730;37.818;2023-06-19T00:50:53;22.29;70.46
75155;HTU21D;63735;44.730;37.818;2023-06-19T00:53:19;22.31;70.63
75155;HTU21D;63735;44.730;37.818;2023-06-19T00:55:47;22.36;70.67
75155;HTU21D;63735;44.730;37.818;2023-06-19T00:58:15;22.41;70.63
75155;HTU21D;63735;44.730;37.818;2023-06-19T01:00:41;22.46;70.61
75155;HTU21D;63735;44.730;37.818;2023-06-19T01:03:07;22.47;70.58
75155;HTU21D;63735;44.730;37.818;2023-06-19T01:05:33;22.51;70.62
75155;HTU21D;63735;44.730;37.818;2023-06-19T01:10:30;22.54;70.64
75155;HTU21D;63735;44.730;37.818;2023-06-19T01:13:05;22.53;70.77
75155;HTU21D;63735;44.730;37.818;2023-06-19T01:15:32;22.54;70.88
75155;HTU21D;63735;44.730;37.818;2023-06-19T01:17:59;22.55;70.86
75155;HTU21D;63735;44.730;37.818;2023-06-19T01:20:26;22.53;70.82
75155;HTU21D;63735;44.730;37.818;2023-06-19T01:22:52;22.53;70.79
75155;HTU21D;63735;44.730;37.818;2023-06-19T01:25:23;22.54;70.80
75155;HTU21D;63735;44.730;37.818;2023-06-19T01:27:50;22.57;70.73
75155;HTU21D;63735;44.730;37.818;2023-06-19T01:30:16;22.64;70.52
75155;HTU21D;63735;44.730;37.818;2023-06-19T01:32:56;22.70;70.39
75155;HTU21D;63735;44.730;37.818;2023-06-19T01:35:28;22.72;70.35
75155;HTU21D;63735;44.730;37.818;2023-06-19T01:37:56;22.73;70.32
75155;HTU21D;63735;44.730;37.818;2023-06-19T01:40:25;22.72;70.35
75155;HTU21D;63735;44.730;37.818;2023-06-19T01:42:53;22.71;70.39
75155;HTU21D;63735;44.730;37.818;2023-06-19T01:45:20;22.71;70.39
75155;HTU21D;63735;44.730;37.818;2023-06-19T01:47:46;22.72;70.37
75155;HTU21D;63735;44.730;37.818;2023-06-19T01:50:12;22.79;70.26
75155;HTU21D;63735;44.730;37.818;2023-06-19T01:52:38;22.82;70.16
75155;HTU21D;63735;44.730;37.818;2023-06-19T01:55:05;22.83;70.13
75155;HTU21D;63735;44.730;37.818;2023-06-19T01:57:32;22.86;70.07
75155;HTU21D;63735;44.730;37.818;2023-06-19T01:59:58;22.88;70.00
75155;HTU21D;63735;44.730;37.818;2023-06-19T02:02:24;22.90;69.97
75155;HTU21D;63735;44.730;37.818;2023-06-19T02:04:49;22.88;69.90
75155;HTU21D;63735;44.730;37.818;2023-06-19T02:07:15;22.93;69.81
75155;HTU21D;63735;44.730;37.818;2023-06-19T02:09:41;22.96;69.74
75155;HTU21D;63735;44.730;37.818;2023-06-19T02:12:07;22.97;69.68
75155;HTU21D;63735;44.730;37.818;2023-06-19T02:14:33;22.98;69.69
75155;HTU21D;63735;44.730;37.818;2023-06-19T02:17:00;22.97;69.71
75155;HTU21D;63735;44.730;37.818;2023-06-19T02:19:26;22.92;69.84
75155;HTU21D;63735;44.730;37.818;2023-06-19T02:21:52;22.86;69.99
75155;HTU21D;63735;44.730;37.818;2023-06-19T02:24:18;22.83;70.12
75155;HTU21D;63735;44.730;37.818;2023-06-19T02:26:44;22.80;70.19
75155;HTU21D;63735;44.730;37.818;2023-06-19T02:29:10;22.75;70.35
75155;HTU21D;63735;44.730;37.818;2023-06-19T02:31:36;22.72;70.42
75155;HTU21D;63735;44.730;37.818;2023-06-19T02:34:04;22.73;70.41
75155;HTU21D;63735;44.730;37.818;2023-06-19T02:36:30;22.76;70.39
75155;HTU21D;63735;44.730;37.818;2023-06-19T02:38:56;22.79;70.32
75155;HTU21D;63735;44.730;37.818;2023-06-19T02:41:21;22.78;70.38
75155;HTU21D;63735;44.730;37.818;2023-06-19T02:43:47;22.75;70.48
75155;HTU21D;63735;44.730;37.818;2023-06-19T02:46:14;22.78;70.48
75155;HTU21D;63735;44.730;37.818;2023-06-19T02:48:40;22.82;70.45
75155;HTU21D;63735;44.730;37.818;2023-06-19T02:51:06;22.87;70.35
75155;HTU21D;63735;44.730;37.818;2023-06-19T02:53:32;22.95;70.26
75155;HTU21D;63735;44.730;37.818;2023-06-19T02:55:58;23.00;70.14
75155;HTU21D;63735;44.730;37.818;2023-06-19T02:58:24;23.06;70.12
75155;HTU21D;63735;44.730;37.818;2023-06-19T03:00:50;23.09;70.10
75155;HTU21D;63735;44.730;37.818;2023-06-19T03:03:16;23.16;70.06
75155;HTU21D;63735;44.730;37.818;2023-06-19T03:05:42;23.23;69.97
75155;HTU21D;63735;44.730;37.818;2023-06-19T03:08:08;23.34;69.81
75155;HTU21D;63735;44.730;37.818;2023-06-19T03:10:34;23.40;69.69
75155;HTU21D;63735;44.730;37.818;2023-06-19T03:13:01;23.45;69.63
75155;HTU21D;63735;44.730;37.818;2023-06-19T03:15:26;23.45;69.68
75155;HTU21D;63735;44.730;37.818;2023-06-19T03:17:53;23.50;69.67
75155;HTU21D;63735;44.730;37.818;2023-06-19T03:20:20;23.53;69.67
75155;HTU21D;63735;44.730;37.818;2023-06-19T03:22:53;23.57;69.62
75155;HTU21D;63735;44.730;37.818;2023-06-19T03:25:19;23.60;69.54
75155;HTU21D;63735;44.730;37.818;2023-06-19T03:27:46;23.61;69.55
75155;HTU21D;63735;44.730;37.818;2023-06-19T03:30:12;23.60;69.60
75155;HTU21D;63735;44.730;37.818;2023-06-19T03:32:40;23.62;69.62
75155;HTU21D;63735;44.730;37.818;2023-06-19T03:35:09;23.67;69.52
75155;HTU21D;63735;44.730;37.818;2023-06-19T03:37:41;23.69;69.45
75155;HTU21D;63735;44.730;37.818;2023-06-19T03:40:07;23.71;69.39
75155;HTU21D;63735;44.730;37.818;2023-06-19T03:42:41;23.72;69.38
75155;HTU21D;63735;44.730;37.818;2023-06-19T03:45:08;23.75;69.36
75155;HTU21D;63735;44.730;37.818;2023-06-19T03:47:34;23.83;69.26
75155;HTU21D;63735;44.730;37.818;2023-06-19T03:50:00;23.91;69.10
75155;HTU21D;63735;44.730;37.818;2023-06-19T03:52:26;23.94;69.02
75155;HTU21D;63735;44.730;37.818;2023-06-19T03:54:53;23.99;69.04
75155;HTU21D;63735;44.730;37.818;2023-06-19T03:57:18;24.04;68.92
75155;HTU21D;63735;44.730;37.818;2023-06-19T03:59:44;24.12;68.71
75155;HTU21D;63735;44.730;37.818;2023-06-19T04:02:10;24.16;68.58
75155;HTU21D;63735;44.730;37.818;2023-06-19T04:04:36;24.23;68.42
75155;HTU21D;63735;44.730;37.818;2023-06-19T04:07:04;24.31;68.25
75155;HTU21D;63735;44.730;37.818;2023-06-19T04:09:30;24.40;68.10
75155;HTU21D;63735;44.730;37.818;2023-06-19T04:11:55;24.48;67.88
75155;HTU21D;63735;44.730;37.818;2023-06-19T04:14:23;24.57;67.64
75155;HTU21D;63735;44.730;37.818;2023-06-19T04:16:49;24.59;67.46
75155;HTU21D;63735;44.730;37.818;2023-06-19T04:19:15;24.63;67.40
75155;HTU21D;63735;44.730;37.818;2023-06-19T04:21:42;24.72;67.22
75155;HTU21D;63735;44.730;37.818;2023-06-19T04:24:08;24.82;67.06
75155;HTU21D;63735;44.730;37.818;2023-06-19T04:26:35;24.90;66.94
75155;HTU21D;63735;44.730;37.818;2023-06-19T04:29:03;24.98;66.75
75155;HTU21D;63735;44.730;37.818;2023-06-19T04:31:32;25.03;66.54
75155;HTU21D;63735;44.730;37.818;2023-06-19T04:33:58;25.10;66.39
75155;HTU21D;63735;44.730;37.818;2023-06-19T04:36:24;25.18;66.19
75155;HTU21D;63735;44.730;37.818;2023-06-19T04:38:50;25.25;65.97
75155;HTU21D;63735;44.730;37.818;2023-06-19T04:41:18;25.31;65.66
75155;HTU21D;63735;44.730;37.818;2023-06-19T04:43:44;25.18;65.08
75155;HTU21D;63735;44.730;37.818;2023-06-19T04:46:10;25.07;65.34
75155;HTU21D;63735;44.730;37.818;2023-06-19T04:48:36;25.02;65.57
75155;HTU21D;63735;44.730;37.818;2023-06-19T04:51:02;25.07;65.37
75155;HTU21D;63735;44.730;37.818;2023-06-19T04:53:28;25.19;65.10
75155;HTU21D;63735;44.730;37.818;2023-06-19T04:55:54;25.31;64.85
75155;HTU21D;63735;44.730;37.818;2023-06-19T04:58:21;25.32;64.61
75155;HTU21D;63735;44.730;37.818;2023-06-19T05:00:47;25.27;64.88
75155;HTU21D;63735;44.730;37.818;2023-06-19T05:03:17;25.18;64.59
75155;HTU21D;63735;44.730;37.818;2023-06-19T05:05:44;25.12;64.27
75155;HTU21D;63735;44.730;37.818;2023-06-19T05:08:10;25.04;64.12
75155;HTU21D;63735;44.730;37.818;2023-06-19T05:10:36;25.04;63.96
75155;HTU21D;63735;44.730;37.818;2023-06-19T05:13:02;25.12;64.00
75155;HTU21D;63735;44.730;37.818;2023-06-19T05:15:28;25.14;63.41
75155;HTU21D;63735;44.730;37.818;2023-06-19T05:17:54;25.17;63.48
75155;HTU21D;63735;44.730;37.818;2023-06-19T05:20:20;25.24;63.54
75155;HTU21D;63735;44.730;37.818;2023-06-19T05:22:45;25.37;63.33
75155;HTU21D;63735;44.730;37.818;2023-06-19T05:25:11;25.42;63.11
75155;HTU21D;63735;44.730;37.818;2023-06-19T05:27:37;25.45;63.01
75155;HTU21D;63735;44.730;37.818;2023-06-19T05:30:04;25.47;62.90
75155;HTU21D;63735;44.730;37.818;2023-06-19T05:32:30;25.43;62.98
75155;HTU21D;63735;44.730;37.818;2023-06-19T05:34:56;25.51;62.85
75155;HTU21D;63735;44.730;37.818;2023-06-19T05:37:22;25.52;62.74
75155;HTU21D;63735;44.730;37.818;2023-06-19T05:39:48;25.46;62.73
75155;HTU21D;63735;44.730;37.818;2023-06-19T05:42:14;25.48;62.56
75155;HTU21D;63735;44.730;37.818;2023-06-19T05:44:40;25.42;62.47
75155;HTU21D;63735;44.730;37.818;2023-06-19T05:47:06;25.38;62.45
75155;HTU21D;63735;44.730;37.818;2023-06-19T05:49:32;25.38;62.41
75155;HTU21D;63735;44.730;37.818;2023-06-19T05:51:58;25.39;62.54
75155;HTU21D;63735;44.730;37.818;2023-06-19T05:54:25;25.50;62.39
75155;HTU21D;63735;44.730;37.818;2023-06-19T05:56:52;25.65;62.20
75155;HTU21D;63735;44.730;37.818;2023-06-19T05:59:18;25.77;62.00
75155;HTU21D;63735;44.730;37.818;2023-06-19T06:01:44;25.83;61.92
75155;HTU21D;63735;44.730;37.818;2023-06-19T06:04:10;25.92;61.81
75155;HTU21D;63735;44.730;37.818;2023-06-19T06:06:35;26.03;61.78
75155;HTU21D;63735;44.730;37.818;2023-06-19T06:09:01;26.10;61.40
75155;HTU21D;63735;44.730;37.818;2023-06-19T06:11:27;26.20;61.20
75155;HTU21D;63735;44.730;37.818;2023-06-19T06:13:53;26.31;61.14
75155;HTU21D;63735;44.730;37.818;2023-06-19T06:16:19;26.34;60.69
75155;HTU21D;63735;44.730;37.818;2023-06-19T06:18:45;26.35;60.86
75155;HTU21D;63735;44.730;37.818;2023-06-19T06:21:11;26.28;60.80
75155;HTU21D;63735;44.730;37.818;2023-06-19T06:23:40;26.13;60.98
75155;HTU21D;63735;44.730;37.818;2023-06-19T06:26:06;26.02;61.27
75155;HTU21D;63735;44.730;37.818;2023-06-19T06:28:31;26.02;61.32
75155;HTU21D;63735;44.730;37.818;2023-06-19T06:30:57;26.12;60.99
75155;HTU21D;63735;44.730;37.818;2023-06-19T06:33:23;26.21;60.81
75155;HTU21D;63735;44.730;37.818;2023-06-19T06:35:49;26.28;60.98
75155;HTU21D;63735;44.730;37.818;2023-06-19T06:38:17;26.49;60.64
75155;HTU21D;63735;44.730;37.818;2023-06-19T06:40:43;26.82;60.39
75155;HTU21D;63735;44.730;37.818;2023-06-19T06:43:08;27.27;59.23
75155;HTU21D;63735;44.730;37.818;2023-06-19T06:45:34;27.72;58.64
75155;HTU21D;63735;44.730;37.818;2023-06-19T06:48:04;27.84;58.29
75155;HTU21D;63735;44.730;37.818;2023-06-19T06:50:30;28.14;57.91
75155;HTU21D;63735;44.730;37.818;2023-06-19T06:52:57;27.91;58.24
75155;HTU21D;63735;44.730;37.818;2023-06-19T06:55:23;27.93;58.24
75155;HTU21D;63735;44.730;37.818;2023-06-19T06:57:49;28.50;56.77
75155;HTU21D;63735;44.730;37.818;2023-06-19T07:00:16;29.21;54.42
75155;HTU21D;63735;44.730;37.818;2023-06-19T07:02:43;29.60;52.91
75155;HTU21D;63735;44.730;37.818;2023-06-19T07:05:10;30.71;50.45
75155;HTU21D;63735;44.730;37.818;2023-06-19T07:07:36;31.25;48.82
75155;HTU21D;63735;44.730;37.818;2023-06-19T07:10:03;31.49;48.70
75155;HTU21D;63735;44.730;37.818;2023-06-19T07:12:29;32.33;46.79
75155;HTU21D;63735;44.730;37.818;2023-06-19T07:14:55;32.05;47.23
75155;HTU21D;63735;44.730;37.818;2023-06-19T07:17:21;31.86;47.62
75155;HTU21D;63735;44.730;37.818;2023-06-19T07:19:47;31.48;48.39
75155;HTU21D;63735;44.730;37.818;2023-06-19T07:22:14;30.11;50.98
75155;HTU21D;63735;44.730;37.818;2023-06-19T07:24:43;29.88;51.60
75155;HTU21D;63735;44.730;37.818;2023-06-19T07:27:08;28.80;53.35
75155;HTU21D;63735;44.730;37.818;2023-06-19T07:29:34;27.87;56.02
75155;HTU21D;63735;44.730;37.818;2023-06-19T07:32:00;27.40;57.41
75155;HTU21D;63735;44.730;37.818;2023-06-19T07:34:28;26.99;58.67
75155;HTU21D;63735;44.730;37.818;2023-06-19T07:36:55;26.69;59.56
75155;HTU21D;63735;44.730;37.818;2023-06-19T07:39:21;26.81;59.72
75155;HTU21D;63735;44.730;37.818;2023-06-19T07:41:47;27.17;59.56
75155;HTU21D;63735;44.730;37.818;2023-06-19T07:44:12;27.40;59.55
75155;HTU21D;63735;44.730;37.818;2023-06-19T07:46:38;27.55;59.70
75155;HTU21D;63735;44.730;37.818;2023-06-19T07:49:04;27.65;59.69
75155;HTU21D;63735;44.730;37.818;2023-06-19T07:51:30;27.63;60.15
75155;HTU21D;63735;44.730;37.818;2023-06-19T07:53:56;27.66;60.26
75155;HTU21D;63735;44.730;37.818;2023-06-19T07:56:22;27.34;60.86
75155;HTU21D;63735;44.730;37.818;2023-06-19T07:58:48;26.91;61.92
75155;HTU21D;63735;44.730;37.818;2023-06-19T08:01:14;26.68;62.43
75155;HTU21D;63735;44.730;37.818;2023-06-19T08:03:40;26.45;63.03
75155;HTU21D;63735;44.730;37.818;2023-06-19T08:06:05;26.26;63.49
75155;HTU21D;63735;44.730;37.818;2023-06-19T08:08:31;26.06;64.00
75155;HTU21D;63735;44.730;37.818;2023-06-19T08:10:57;25.86;64.87
75155;HTU21D;63735;44.730;37.818;2023-06-19T08:13:23;25.62;65.31
75155;HTU21D;63735;44.730;37.818;2023-06-19T08:15:49;25.43;65.82
75155;HTU21D;63735;44.730;37.818;2023-06-19T08:18:15;25.38;65.93
75155;HTU21D;63735;44.730;37.818;2023-06-19T08:20:41;25.29;65.95
75155;HTU21D;63735;44.730;37.818;2023-06-19T08:23:07;25.19;66.20
75155;HTU21D;63735;44.730;37.818;2023-06-19T08:25:33;25.22;66.52
75155;HTU21D;63735;44.730;37.818;2023-06-19T08:27:59;25.32;66.29
75155;HTU21D;63735;44.730;37.818;2023-06-19T08:30:24;25.42;66.20
75155;HTU21D;63735;44.730;37.818;2023-06-19T08:32:51;25.46;66.17
75155;HTU21D;63735;44.730;37.818;2023-06-19T08:35:17;25.57;66.10
75155;HTU21D;63735;44.730;37.818;2023-06-19T08:37:44;25.72;66.03
75155;HTU21D;63735;44.730;37.818;2023-06-19T08:40:11;25.66;66.49
75155;HTU21D;63735;44.730;37.818;2023-06-19T08:42:37;25.62;66.98
75155;HTU21D;63735;44.730;37.818;2023-06-19T08:45:06;25.61;67.01
75155;HTU21D;63735;44.730;37.818;2023-06-19T08:47:33;25.62;66.96
75155;HTU21D;63735;44.730;37.818;2023-06-19T08:50:01;25.89;66.67
75155;HTU21D;63735;44.730;37.818;2023-06-19T08:52:28;26.21;65.98
75155;HTU21D;63735;44.730;37.818;2023-06-19T08:54:53;26.30;65.72
75155;HTU21D;63735;44.730;37.818;2023-06-19T08:57:19;26.35;65.70
75155;HTU21D;63735;44.730;37.818;2023-06-19T08:59:49;26.16;65.89
75155;HTU21D;63735;44.730;37.818;2023-06-19T09:02:16;26.09;66.04
75155;HTU21D;63735;44.730;37.818;2023-06-19T09:04:42;25.95;66.33
75155;HTU21D;63735;44.730;37.818;2023-06-19T09:07:08;25.77;66.73
75155;HTU21D;63735;44.730;37.818;2023-06-19T09:09:46;25.51;67.34
75155;HTU21D;63735;44.730;37.818;2023-06-19T09:12:13;25.36;67.74
75155;HTU21D;63735;44.730;37.818;2023-06-19T09:14:45;25.34;67.78
75155;HTU21D;63735;44.730;37.818;2023-06-19T09:17:14;25.34;67.91
75155;HTU21D;63735;44.730;37.818;2023-06-19T09:19:53;25.34;67.84
75155;HTU21D;63735;44.730;37.818;2023-06-19T09:22:22;25.22;67.55
75155;HTU21D;63735;44.730;37.818;2023-06-19T09:24:49;25.05;67.38
75155;HTU21D;63735;44.730;37.818;2023-06-19T09:27:17;24.89;66.78
75155;HTU21D;63735;44.730;37.818;2023-06-19T09:29:47;24.74;66.48
75155;HTU21D;63735;44.730;37.818;2023-06-19T09:32:25;24.59;66.25
75155;HTU21D;63735;44.730;37.818;2023-06-19T09:34:54;24.47;66.02
75155;HTU21D;63735;44.730;37.818;2023-06-19T09:37:23;23.83;67.52
75155;HTU21D;63735;44.730;37.818;2023-06-19T09:40:03;23.09;69.52
75155;HTU21D;63735;44.730;37.818;2023-06-19T09:42:46;22.86;70.00
75155;HTU21D;63735;44.730;37.818;2023-06-19T09:45:23;22.93;69.80
75155;HTU21D;63735;44.730;37.818;2023-06-19T09:47:52;22.97;69.81
75155;HTU21D;63735;44.730;37.818;2023-06-19T09:50:21;23.00;70.04
75155;HTU21D;63735;44.730;37.818;2023-06-19T09:52:49;23.01;70.42
75155;HTU21D;63735;44.730;37.818;2023-06-19T09:55:19;22.98;70.76
75155;HTU21D;63735;44.730;37.818;2023-06-19T09:57:45;23.00;70.74
75155;HTU21D;63735;44.730;37.818;2023-06-19T10:00:12;22.98;71.10
75155;HTU21D;63735;44.730;37.818;2023-06-19T10:02:42;22.97;71.57
75155;HTU21D;63735;44.730;37.818;2023-06-19T10:05:09;22.97;71.85
75155;HTU21D;63735;44.730;37.818;2023-06-19T10:07:38;22.97;72.19
75155;HTU21D;63735;44.730;37.818;2023-06-19T10:10:08;22.96;72.43
75155;HTU21D;63735;44.730;37.818;2023-06-19T10:12:43;22.91;72.54
75155;HTU21D;63735;44.730;37.818;2023-06-19T10:15:19;22.83;72.46
75155;HTU21D;63735;44.730;37.818;2023-06-19T10:17:53;22.69;72.56
75155;HTU21D;63735;44.730;37.818;2023-06-19T10:20:31;22.46;72.87
75155;HTU21D;63735;44.730;37.818;2023-06-19T10:25:34;22.21;73.44
75155;HTU21D;63735;44.730;37.818;2023-06-19T10:28:01;22.19;73.57
75155;HTU21D;63735;44.730;37.818;2023-06-19T10:30:28;22.17;73.99
75155;HTU21D;63735;44.730;37.818;2023-06-19T10:32:55;22.12;74.35
75155;HTU21D;63735;44.730;37.818;2023-06-19T10:35:21;22.11;74.52
75155;HTU21D;63735;44.730;37.818;2023-06-19T10:37:48;22.10;74.79
75155;HTU21D;63735;44.730;37.818;2023-06-19T10:40:14;22.10;74.90
75155;HTU21D;63735;44.730;37.818;2023-06-19T10:42:40;22.09;75.02
75155;HTU21D;63735;44.730;37.818;2023-06-19T10:45:09;22.06;75.26
75155;HTU21D;63735;44.730;37.818;2023-06-19T10:47:37;22.01;75.48
75155;HTU21D;63735;44.730;37.818;2023-06-19T10:50:04;21.94;75.79
75155;HTU21D;63735;44.730;37.818;2023-06-19T10:52:30;21.91;75.94
75155;HTU21D;63735;44.730;37.818;2023-06-19T10:54:57;21.85;76.14
75155;HTU21D;63735;44.730;37.818;2023-06-19T10:57:32;21.80;76.43
75155;HTU21D;63735;44.730;37.818;2023-06-19T10:59:58;21.79;76.53
75155;HTU21D;63735;44.730;37.818;2023-06-19T11:02:25;21.79;76.76
75155;HTU21D;63735;44.730;37.818;2023-06-19T11:04:54;21.78;76.98
75155;HTU21D;63735;44.730;37.818;2023-06-19T11:07:22;21.78;77.15
75155;HTU21D;63735;44.730;37.818;2023-06-19T11:09:51;21.77;77.40
75155;HTU21D;63735;44.730;37.818;2023-06-19T11:12:21;21.75;77.60
75155;HTU21D;63735;44.730;37.818;2023-06-19T11:14:49;21.72;77.83
75155;HTU21D;63735;44.730;37.818;2023-06-19T11:17:16;21.73;78.00
75155;HTU21D;63735;44.730;37.818;2023-06-19T11:19:44;21.77;78.20
75155;HTU21D;63735;44.730;37.818;2023-06-19T11:22:10;21.80;78.24
75155;HTU21D;63735;44.730;37.818;2023-06-19T11:24:37;21.78;78.24
75155;HTU21D;63735;44.730;37.818;2023-06-19T11:27:03;21.73;78.24
75155;HTU21D;63735;44.730;37.818;2023-06-19T11:29:31;21.66;78.20
75155;HTU21D;63735;44.730;37.818;2023-06-19T11:32:13;21.61;78.36
75155;HTU21D;63735;44.730;37.818;2023-06-19T11:34:40;21.63;78.34
75155;HTU21D;63735;44.730;37.818;2023-06-19T11:37:13;21.65;78.41
75155;HTU21D;63735;44.730;37.818;2023-06-19T11:39:44;21.66;78.43
75155;HTU21D;63735;44.730;37.818;2023-06-19T11:42:11;21.70;78.41
75155;HTU21D;63735;44.730;37.818;2023-06-19T11:44:57;21.74;78.59
75155;HTU21D;63735;44.730;37.818;2023-06-19T11:47:26;21.75;78.46
75155;HTU21D;63735;44.730;37.818;2023-06-19T11:49:51;21.73;78.64
75155;HTU21D;63735;44.730;37.818;2023-06-19T11:52:18;21.75;78.79
75155;HTU21D;63735;44.730;37.818;2023-06-19T11:54:43;21.76;78.86
75155;HTU21D;63735;44.730;37.818;2023-06-19T11:57:12;21.76;78.91
75155;HTU21D;63735;44.730;37.818;2023-06-19T11:59:42;21.73;78.98
75155;HTU21D;63735;44.730;37.818;2023-06-19T12:02:08;21.72;79.01
75155;HTU21D;63735;44.730;37.818;2023-06-19T12:04:35;21.73;79.09
75155;HTU21D;63735;44.730;37.818;2023-06-19T12:07:01;21.78;79.10
75155;HTU21D;63735;44.730;37.818;2023-06-19T12:09:28;21.89;78.82
75155;HTU21D;63735;44.730;37.818;2023-06-19T12:11:54;21.96;78.64
75155;HTU21D;63735;44.730;37.818;2023-06-19T12:14:19;22.04;78.75
75155;HTU21D;63735;44.730;37.818;2023-06-19T12:16:46;22.08;78.82
75155;HTU21D;63735;44.730;37.818;2023-06-19T12:19:13;22.16;78.90
75155;HTU21D;63735;44.730;37.818;2023-06-19T12:21:39;22.29;78.93
75155;HTU21D;63735;44.730;37.818;2023-06-19T12:24:05;22.44;78.83
75155;HTU21D;63735;44.730;37.818;2023-06-19T12:26:33;22.55;78.66
75155;HTU21D;63735;44.730;37.818;2023-06-19T12:29:03;22.65;78.43
75155;HTU21D;63735;44.730;37.818;2023-06-19T12:31:33;22.72;78.40
75155;HTU21D;63735;44.730;37.818;2023-06-19T12:33:59;22.70;78.08
75155;HTU21D;63735;44.730;37.818;2023-06-19T12:36:27;22.54;78.01
75155;HTU21D;63735;44.730;37.818;2023-06-19T12:38:53;22.43;78.13
75155;HTU21D;63735;44.730;37.818;2023-06-19T12:41:22;22.39;78.21
75155;HTU21D;63735;44.730;37.818;2023-06-19T12:43:48;22.40;78.10
75155;HTU21D;63735;44.730;37.818;2023-06-19T12:46:14;22.47;77.93
75155;HTU21D;63735;44.730;37.818;2023-06-19T12:48:41;22.58;77.60
75155;HTU21D;63735;44.730;37.818;2023-06-19T12:51:07;22.63;77.35
75155;HTU21D;63735;44.730;37.818;2023-06-19T12:53:33;22.67;77.29
75155;HTU21D;63735;44.730;37.818;2023-06-19T12:55:59;22.70;77.30
75155;HTU21D;63735;44.730;37.818;2023-06-19T12:58:25;22.77;77.15
75155;HTU21D;63735;44.730;37.818;2023-06-19T13:00:53;22.80;77.16
75155;HTU21D;63735;44.730;37.818;2023-06-19T13:03:18;22.91;77.23
75155;HTU21D;63735;44.730;37.818;2023-06-19T13:05:46;22.98;77.11
75155;HTU21D;63735;44.730;37.818;2023-06-19T13:08:12;23.08;76.74
75155;HTU21D;63735;44.730;37.818;2023-06-19T13:10:38;23.14;76.38
75155;HTU21D;63735;44.730;37.818;2023-06-19T13:13:06;23.20;76.11
75155;HTU21D;63735;44.730;37.818;2023-06-19T13:15:32;23.30;75.77
75155;HTU21D;63735;44.730;37.818;2023-06-19T13:18:01;23.42;75.37
75155;HTU21D;63735;44.730;37.818;2023-06-19T13:20:27;23.52;75.06
75155;HTU21D;63735;44.730;37.818;2023-06-19T13:22:53;23.59;74.82
75155;HTU21D;63735;44.730;37.818;2023-06-19T13:25:19;23.68;74.73
75155;HTU21D;63735;44.730;37.818;2023-06-19T13:27:45;23.76;74.50
75155;HTU21D;63735;44.730;37.818;2023-06-19T13:30:12;23.87;74.41
75155;HTU21D;63735;44.730;37.818;2023-06-19T13:32:38;23.96;74.40
75155;HTU21D;63735;44.730;37.818;2023-06-19T13:35:07;24.03;74.47
75155;HTU21D;63735;44.730;37.818;2023-06-19T13:37:35;24.10;74.51
75155;HTU21D;63735;44.730;37.818;2023-06-19T13:40:01;24.13;74.53
75155;HTU21D;63735;44.730;37.818;2023-06-19T13:42:30;24.17;74.58
75155;HTU21D;63735;44.730;37.818;2023-06-19T13:44:57;24.20;74.54
75155;HTU21D;63735;44.730;37.818;2023-06-19T13:47:23;24.25;74.47
75155;HTU21D;63735;44.730;37.818;2023-06-19T13:49:51;24.23;74.47
75155;HTU21D;63735;44.730;37.818;2023-06-19T13:52:17;24.27;74.40
75155;HTU21D;63735;44.730;37.818;2023-06-19T13:54:43;24.30;73.97
75155;HTU21D;63735;44.730;37.818;2023-06-19T13:57:09;24.38;73.13
75155;HTU21D;63735;44.730;37.818;2023-06-19T13:59:35;24.49;72.21
75155;HTU21D;63735;44.730;37.818;2023-06-19T14:02:01;24.58;71.77
75155;HTU21D;63735;44.730;37.818;2023-06-19T14:04:26;24.62;71.36
75155;HTU21D;63735;44.730;37.818;2023-06-19T14:06:52;24.65;70.84
75155;HTU21D;63735;44.730;37.818;2023-06-19T14:09:20;24.68;70.14
75155;HTU21D;63735;44.730;37.818;2023-06-19T14:11:46;24.72;69.29
75155;HTU21D;63735;44.730;37.818;2023-06-19T14:14:12;24.76;68.81
75155;HTU21D;63735;44.730;37.818;2023-06-19T14:16:38;24.78;68.30
75155;HTU21D;63735;44.730;37.818;2023-06-19T14:19:04;24.80;68.23
75155;HTU21D;63735;44.730;37.818;2023-06-19T14:21:30;24.80;68.28
75155;HTU21D;63735;44.730;37.818;2023-06-19T14:23:55;24.80;68.39
75155;HTU21D;63735;44.730;37.818;2023-06-19T14:26:21;24.78;68.13
75155;HTU21D;63735;44.730;37.818;2023-06-19T14:28:48;24.75;68.18
75155;HTU21D;63735;44.730;37.818;2023-06-19T14:31:14;24.73;68.12
75155;HTU21D;63735;44.730;37.818;2023-06-19T14:33:41;24.71;68.10
75155;HTU21D;63735;44.730;37.818;2023-06-19T14:36:06;24.71;67.84
75155;HTU21D;63735;44.730;37.818;2023-06-19T14:38:33;24.71;67.89
75155;HTU21D;63735;44.730;37.818;2023-06-19T14:41:02;24.69;67.92
75155;HTU21D;63735;44.730;37.818;2023-06-19T14:43:28;24.71;67.84
75155;HTU21D;63735;44.730;37.818;2023-06-19T14:45:55;24.75;67.59
75155;HTU21D;63735;44.730;37.818;2023-06-19T14:48:21;24.77;67.32
75155;HTU21D;63735;44.730;37.818;2023-06-19T14:50:47;24.83;67.29
75155;HTU21D;63735;44.730;37.818;2023-06-19T14:53:13;24.80;67.05
75155;HTU21D;63735;44.730;37.818;2023-06-19T14:55:39;24.80;66.85
75155;HTU21D;63735;44.730;37.818;2023-06-19T14:58:12;24.82;66.49
75155;HTU21D;63735;44.730;37.818;2023-06-19T15:00:38;24.79;65.28
75155;HTU21D;63735;44.730;37.818;2023-06-19T15:03:04;24.77;64.82
75155;HTU21D;63735;44.730;37.818;2023-06-19T15:05:32;24.74;64.88
75155;HTU21D;63735;44.730;37.818;2023-06-19T15:07:58;24.70;64.69